Flight Track Log - Related Links

Times and Time Zones

All times are in EDT time to prevent confusion due to time zone crossing. See the AFL150 flight status page for this flight to view local times or setup timezone preferences in your user account.

Time Position Orientation Groundspeed Altitude Reporting Facility
EDT Latitude Longitude Course Direction KTS MPH feet Rate Location/Type
Tue 09:49:00 AM 56.1770 36.7734 307° West  Level Estimated
Tue 09:50:00 AM 56.2416 36.6149 306° West  Level Estimated
Tue 09:51:00 AM 56.3060 36.4558 306° West  Level Estimated
Tue 09:52:00 AM 56.3702 36.2962 306° West  Level Estimated
Tue 09:53:00 AM 56.4342 36.1361 306° West  Level Estimated
Tue 09:54:00 AM 56.4980 35.9754 306° West  Level Estimated
Tue 09:55:00 AM 56.5615 35.8142 306° West  Level Estimated
Tue 09:56:00 AM 56.6249 35.6525 305° West  Level Estimated
Tue 09:57:00 AM 56.6880 35.4902 305° West  Level Estimated
Tue 09:58:00 AM 56.7510 35.3273 305° West  Level Estimated
Tue 09:59:00 AM 56.8137 35.1639 305° West  Level Estimated
Tue 10:00:00 AM 56.8762 35.0000 305° West  Level Estimated
Tue 10:01:00 AM 56.9385 34.8355 305° West  Level Estimated
Tue 10:02:00 AM 57.0006 34.6704 305° West  Level Estimated
Tue 10:03:00 AM 57.0625 34.5049 305° West  Level Estimated
Tue 10:04:00 AM 57.1241 34.3387 304° West  Level Estimated
Tue 10:05:00 AM 57.1855 34.1720 304° West  Level Estimated
Tue 10:06:00 AM 57.2467 34.0048 304° West  Level Estimated
Tue 10:07:00 AM 57.3077 33.8370 304° West  Level Estimated
Tue 10:08:00 AM 57.3685 33.6686 304° West  Level Estimated
Tue 10:09:00 AM 57.4290 33.4997 304° West  Level Estimated
Tue 10:10:00 AM 57.4893 33.3302 304° West  Level Estimated
Tue 10:11:00 AM 57.5494 33.1602 303° West  Level Estimated
Tue 10:12:00 AM 57.6092 32.9896 303° West  Level Estimated
Tue 10:13:00 AM 57.6688 32.8184 303° West  Level Estimated
Tue 10:14:00 AM 57.7282 32.6467 303° West  Level Estimated
Tue 10:14:08 AM 56.3751 33.2416 278° West 436 502 34,000  Level FlightAware ADS-B
Tue 10:20:22 AM 56.5979 30.5033 277° West 420 483 34,000  Level FlightAware ADS-B
Tue 10:21:23 AM 56.6126 30.2917 277° West 421 484 34,000  Level FlightAware ADS-B
Tue 10:22:21 AM 56.6265 30.0846 277° West 423 487 34,000  Level FlightAware ADS-B
Tue 10:23:23 AM 56.6408 29.8677 277° West 426 490 34,000  Level FlightAware ADS-B
Tue 10:24:23 AM 56.6542 29.6558 277° West 425 489 34,000  Level FlightAware ADS-B
Tue 10:25:21 AM 56.6673 29.4455 276° West 427 491 34,000  Level FlightAware ADS-B
Tue 10:26:23 AM 56.6803 29.2287 276° West 429 494 34,000  Level FlightAware ADS-B
Tue 10:27:23 AM 56.6926 29.0187 276° West 428 493 34,000  Level FlightAware ADS-B
Tue 10:28:23 AM 56.7048 28.8033 276° West 424 488 34,000  Level FlightAware ADS-B
Tue 10:29:23 AM 56.7158 28.6017 276° West 422 486 34,000  Level FlightAware ADS-B
Tue 10:30:22 AM 56.7275 28.3825 275° West 424 488 34,000  Level FlightAware ADS-B
Tue 10:31:23 AM 56.7383 28.1751 275° West 425 489 34,000  Level FlightAware ADS-B
Tue 10:32:23 AM 56.7494 27.9525 275° West 426 490 34,000  Level FlightAware ADS-B
Tue 10:33:22 AM 56.7603 27.7382 276° West 428 493 34,000  Level FlightAware ADS-B
Tue 10:34:22 AM 56.7712 27.5246 275° West 430 495 34,000  Level FlightAware ADS-B
Tue 10:35:23 AM 56.7775 27.3068 267° West 444 511 34,000  Level FlightAware ADS-B
Tue 10:36:23 AM 56.7720 27.0825 267° West 443 510 34,000  Level FlightAware ADS-B
Tue 10:37:22 AM 56.7659 26.8598 267° West 441 507 34,000  Level FlightAware ADS-B
Tue 10:38:22 AM 56.7597 26.6410 267° West 442 509 34,000  Level FlightAware ADS-B
Tue 10:39:22 AM 56.7529 26.4184 267° West 444 511 34,000  Level FlightAware ADS-B
Tue 10:40:22 AM 56.7457 26.1924 267° West 444 511 34,000  Level FlightAware ADS-B
Tue 10:41:23 AM 56.7382 25.9718 266° West 443 510 34,000  Level FlightAware ADS-B
Tue 10:42:22 AM 56.7302 25.7508 266° West 432 497 34,000  Level FlightAware ADS-B
Tue 10:43:21 AM 56.7222 25.5361 266° West 427 491 34,000  Level FlightAware ADS-B
Tue 10:44:22 AM 56.7138 25.3217 266° West 425 489 34,000  Level FlightAware ADS-B
Tue 10:45:22 AM 56.7052 25.1080 266° West 425 489 34,000  Level FlightAware ADS-B
Tue 10:46:22 AM 56.6961 24.8937 265° West 425 489 34,000  Level FlightAware ADS-B
Tue 10:47:22 AM 56.6869 24.6849 265° West 424 488 34,000  Level FlightAware ADS-B
Tue 10:48:23 AM 56.6767 24.4635 265° West 433 498 34,000  Level FlightAware ADS-B
Tue 10:49:09 AM 56.6692 24.3029 265° West 439 505 34,000  Level FlightAware ADS-B (EPSY / SZY)
Tue 10:49:49 AM 56.6615 24.1486 265° West 437 503 34,000  Level FlightAware ADS-B (EPSY / SZY)
Tue 10:50:20 AM 56.6557 24.0329 265° West 436 502 34,000  Level FlightAware ADS-B (EPSY / SZY)
Tue 10:50:50 AM 56.6504 23.9289 265° West 437 503 34,000  Level FlightAware ADS-B (EPSY / SZY)
Tue 10:51:21 AM 56.6445 23.8131 265° West 437 503 34,000  Level FlightAware ADS-B (EPSY / SZY)
Tue 10:52:00 AM 56.6369 23.6703 265° West 437 503 34,000  Level FlightAware ADS-B (EPSY / SZY)
Tue 10:52:31 AM 56.6309 23.5585 264° West 437 503 34,000  Level FlightAware ADS-B (EPSY / SZY)
Tue 10:53:03 AM 56.6245 23.4429 264° West 436 502 34,000  Level FlightAware ADS-B (EPSY / SZY)
Tue 10:53:33 AM 56.6185 23.3362 264° West 435 501 34,000  Level FlightAware ADS-B (EPSY / SZY)
Tue 10:54:04 AM 56.6119 23.2187 264° West 435 501 34,000  Level FlightAware ADS-B (EPSY / SZY)
Tue 10:54:35 AM 56.6055 23.1081 264° West 436 502 34,000  Level FlightAware ADS-B (EPSY / SZY)
Tue 10:55:05 AM 56.5993 23.0002 264° West 438 504 34,000  Level FlightAware ADS-B (EPSY / SZY)
Tue 10:55:36 AM 56.5924 22.8851 264° West 440 506 34,000  Level FlightAware ADS-B (EPSY / SZY)
Tue 10:56:07 AM 56.5858 22.7752 264° West 441 507 34,000  Level FlightAware ADS-B (EPSY / SZY)
Tue 10:56:53 AM 56.5753 22.6049 264° West 441 507 34,000  Level FlightAware ADS-B (EPSY / SZY)
Tue 10:57:23 AM 56.5683 22.4933 264° West 441 507 34,000  Level FlightAware ADS-B (EPSY / SZY)
Tue 10:58:05 AM 56.5588 22.3425 263° West 442 509 34,000  Level FlightAware ADS-B (EPSY / SZY)
Tue 10:58:35 AM 56.5518 22.2344 263° West 443 510 34,000  Level FlightAware ADS-B (EPSY / SZY)
Tue 10:59:15 AM 56.5419 22.0846 263° West 444 511 34,000  Level FlightAware ADS-B (EPSY / SZY)
Tue 10:59:57 AM 56.5321 21.9384 263° West 444 511 34,000  Level FlightAware ADS-B (EPSY / SZY)
Tue 11:00:37 AM 56.5215 21.7846 263° West 443 510 34,000  Level FlightAware ADS-B (EPSY / SZY)
Tue 11:01:08 AM 56.5147 21.6861 263° West 442 509 34,000  Level FlightAware ADS-B (EPSY / SZY)
Tue 11:01:38 AM 56.5064 21.5674 263° West 443 510 34,000  Level FlightAware ADS-B (EPSY / SZY)
Tue 11:02:08 AM 56.4980 21.4504 263° West 443 510 34,000  Level FlightAware ADS-B (EPSY / SZY)
Tue 11:02:38 AM 56.4902 21.3424 263° West 444 511 34,000  Level FlightAware ADS-B (EPSY / SZY)
Tue 11:03:14 AM 56.4804 21.2086 262° West 444 511 34,000  Level FlightAware ADS-B (EPSY / SZY)
Tue 11:03:44 AM 56.4724 21.0998 262° West 444 511 34,000  Level FlightAware ADS-B (EPSY / SZY)
Tue 11:04:21 AM 56.4629 20.9732 262° West 444 511 34,000  Level FlightAware ADS-B
Tue 11:05:08 AM 56.4536 20.8513 262° West 443 510 34,000  Level FlightAware ADS-B (EPSY / SZY)
Tue 11:05:40 AM 56.4399 20.6744 262° West 443 510 34,000  Level FlightAware ADS-B (EPSY / SZY)
Tue 11:06:22 AM 56.4276 20.5184 262° West 445 512 34,000  Level FlightAware ADS-B (EPSY / SZY)
Tue 11:07:01 AM 56.4163 20.3771 262° West 445 512 34,000  Level FlightAware ADS-B (EPSY / SZY)
Tue 11:07:32 AM 56.4069 20.2615 262° West 445 512 34,000  Level FlightAware ADS-B (EPSY / SZY)
Tue 11:08:18 AM 56.3931 20.0941 261° West 443 510 34,000  Level FlightAware ADS-B (EPSY / SZY)
Tue 11:08:48 AM 56.3841 19.9866 262° West 444 511 34,000  Level FlightAware ADS-B (EPSY / SZY)
Tue 11:09:18 AM 56.3747 19.8752 261° West 445 512 34,000  Level FlightAware ADS-B (EPSY / SZY)
Tue 11:09:48 AM 56.3655 19.7676 261° West 445 512 34,000  Level FlightAware ADS-B (EPSY / SZY)
Tue 11:10:22 AM 56.3547 19.6427 261° West 446 513 34,000  Level FlightAware ADS-B (EPSY / SZY)
Tue 11:20:05 AM 56.0751 17.5486 253° West 449 517 34,000  Level FlightAware ADS-B
Tue 11:22:28 AM 55.9892 17.0453 258° West 448 516 34,000  Level FlightAware ADS-B
Tue 11:22:40 AM 55.9889 16.9953 274° West 438 504 34,000  Level FlightAware ADS-B (EPGD / GDN)
Tue 11:23:10 AM 55.9953 16.8886 276° West 437 503 34,000  Level FlightAware ADS-B
Tue 11:23:40 AM 56.0004 16.7947 276° West 437 503 34,000  Level FlightAware ADS-B
Tue 11:24:10 AM 56.0061 16.6757 275° West 439 505 34,000  Level FlightAware ADS-B
Tue 11:25:09 AM 56.0156 16.4632 275° West 442 509 34,000  Level FlightAware ADS-B
Tue 11:25:49 AM 56.0214 16.3312 275° West 443 510 34,000  Level FlightAware ADS-B
Tue 11:26:49 AM 56.0314 16.0975 274° West 445 512 34,000  Level FlightAware ADS-B
Tue 11:27:48 AM 56.0404 15.8807 274° West 447 514 34,000  Level FlightAware ADS-B
Tue 11:28:18 AM 56.0449 15.7684 274° West 448 516 34,000  Level FlightAware ADS-B
Tue 11:28:49 AM 56.0492 15.6561 274° West 448 516 34,000  Level FlightAware ADS-B
Tue 11:30:04 AM 56.0596 15.3773 274° West 449 517 34,000  Level FlightAware ADS-B
Tue 11:30:36 AM 56.0635 15.2676 274° West 450 518 34,000  Level FlightAware ADS-B
Tue 11:31:17 AM 56.0690 15.1111 273° West 450 518 34,000  Level FlightAware ADS-B
Tue 11:31:49 AM 56.0729 14.9912 273° West 449 517 34,000  Level FlightAware ADS-B
Tue 11:32:49 AM 56.0794 14.7912 273° West 447 514 34,000  Level FlightAware ADS-B
Tue 11:33:19 AM 56.0835 14.6595 273° West 446 513 34,000  Level FlightAware ADS-B
Tue 11:33:49 AM 56.0867 14.5515 273° West 445 512 34,000  Level FlightAware ADS-B
Tue 11:34:48 AM 56.0930 14.3298 273° West 445 512 34,000  Level FlightAware ADS-B
Tue 11:35:19 AM 56.0960 14.2211 273° West 444 511 34,000  Level FlightAware ADS-B
Tue 11:36:19 AM 56.1016 14.0032 273° West 445 512 34,000  Level FlightAware ADS-B
Tue 11:36:49 AM 56.1043 13.8900 273° West 444 511 34,000  Level FlightAware ADS-B
Tue 11:37:49 AM 56.1093 13.6745 272° West 445 512 34,000  Level FlightAware ADS-B
Tue 11:38:20 AM 56.1119 13.5564 272° West 445 512 34,000  Level FlightAware ADS-B
Tue 11:38:51 AM 56.1143 13.4410 272° West 446 513 34,000  Level FlightAware ADS-B
Tue 11:39:35 AM 56.1174 13.2813 272° West 447 514 34,000  Level FlightAware ADS-B
Tue 11:40:19 AM 56.1205 13.1159 272° West 447 514 34,000  Level FlightAware ADS-B
Tue 11:40:50 AM 56.1225 13.0026 271° West 446 513 34,000  Level FlightAware ADS-B
Tue 11:41:20 AM 56.1242 12.8925 271° West 446 513 34,000  Level FlightAware ADS-B
Tue 11:42:05 AM 56.1268 12.7258 271° West 446 513 34,000  Level FlightAware ADS-B
Tue 11:42:35 AM 56.1284 12.6151 270° West 446 513 34,000  Level FlightAware ADS-B
Tue 11:42:50 AM 56.1291 12.5599 270° West 446 513 34,000  Level FlightAware ADS-B
Tue 11:43:20 AM 56.1305 12.4501 270° West 446 513 34,000  Level FlightAware ADS-B
Tue 11:43:50 AM 56.1319 12.3383 270° West 447 514 34,000  Level FlightAware ADS-B
Tue 11:44:21 AM 56.1331 12.2259 270° West 447 514 34,000  Level FlightAware ADS-B
Tue 11:44:51 AM 56.1342 12.1154 270° West 447 514 34,000  Level FlightAware ADS-B
Tue 11:45:19 AM 56.1351 12.0107 270° West 447 514 34,000  Level FlightAware ADS-B
Tue 11:45:51 AM 56.1361 11.8933 271° West 447 514 34,000  Level FlightAware ADS-B
Tue 11:46:21 AM 56.1369 11.7838 271° West 447 514 34,000  Level FlightAware ADS-B
Tue 11:47:19 AM 56.1382 11.5699 271° West 448 516 34,000  Level FlightAware ADS-B
Tue 11:47:51 AM 56.1387 11.4506 270° West 448 516 34,000  Level FlightAware ADS-B
Tue 11:48:49 AM 56.1395 11.2327 270° West 448 516 34,000  Level FlightAware ADS-B
Tue 11:49:19 AM 56.1397 11.1279 270° West 447 514 34,000  Level FlightAware ADS-B
Tue 11:49:49 AM 56.1398 11.0121 270° West 447 514 34,000  Level FlightAware ADS-B
Tue 11:50:48 AM 56.1398 10.7931 270° West 447 514 34,000  Level FlightAware ADS-B
Tue 11:51:48 AM 56.1393 10.5737 270° West 449 517 34,000  Level FlightAware ADS-B
Tue 11:52:19 AM 56.1389 10.4574 270° West 449 517 34,000  Level FlightAware ADS-B
Tue 11:53:19 AM 56.1379 10.2373 269° West 450 518 34,000  Level FlightAware ADS-B
Tue 11:53:49 AM 56.1372 10.1245 269° West 450 518 34,000  Level FlightAware ADS-B
Tue 11:54:19 AM 56.1365 10.0165 269° West 450 518 34,000  Level FlightAware ADS-B
Tue 11:55:19 AM 56.1346 9.7915 269° West 449 517 34,000  Level FlightAware ADS-B
Tue 11:55:50 AM 56.1336 9.6838 269° West 450 518 34,000  Level FlightAware ADS-B
Tue 11:56:51 AM 56.1311 9.4553 269° West 451 519 34,000  Level FlightAware ADS-B
Tue 11:57:52 AM 56.1282 9.2300 269° West 453 521 34,000  Level FlightAware ADS-B
Tue 11:58:22 AM 56.1265 9.1079 269° West 453 521 34,000  Level FlightAware ADS-B
Tue 11:58:53 AM 56.1248 8.9945 268° West 452 520 34,000  Level FlightAware ADS-B
Tue 11:59:54 AM 56.1210 8.7646 268° West 452 520 34,000  Level FlightAware ADS-B
Tue 12:02:24 PM 56.1100 8.2078 268° West 457 526 34,000  Level FlightAware ADS-B
Tue 12:03:25 PM 56.1045 7.9709 267° West 457 526 34,000  Level FlightAware ADS-B
Tue 12:04:25 PM 56.0988 7.7437 267° West 459 528 34,000  Level FlightAware ADS-B
Tue 12:05:25 PM 56.0928 7.5189 267° West 459 528 34,000  Level FlightAware ADS-B
Tue 12:06:55 PM 56.0829 7.1757 266° West 459 528 34,000  Level FlightAware ADS-B
Tue 12:07:53 PM 56.0759 6.9520 266° West 458 527 34,000  Level FlightAware ADS-B
Tue 12:09:25 PM 56.0644 6.6109 266° West 459 528 34,000  Level FlightAware ADS-B
Tue 12:11:03 PM 56.0509 6.2412 266° West 460 529 34,000  Level FlightAware ADS-B
Tue 12:12:35 PM 56.0369 5.8858 265° West 459 528 34,000  Level FlightAware ADS-B
Tue 12:13:05 PM 56.0323 5.7749 265° West 459 528 34,000  Level FlightAware ADS-B
Tue 12:14:03 PM 56.0227 5.5504 265° West 461 531 34,000  Level FlightAware ADS-B
Tue 12:14:57 PM 56.0131 5.3392 265° West 467 537 34,000 94 Level FlightAware UK
Tue 12:17:15 PM 55.9883 4.8142 265° West 590 679 34,300 313 Climbing FlightAware UK
Tue 12:18:09 PM 55.9780 4.6058 265° West 470 541 35,000 824 Climbing FlightAware UK
Tue 12:18:57 PM 55.9680 4.4206 265° West 470 541 35,700 769 Climbing FlightAware UK
Tue 12:19:27 PM 55.9619 4.3047 265° West 472 543 36,000 273 Climbing FlightAware UK
Tue 12:20:03 PM 55.9541 4.1651 264° West 474 545 36,000  Level FlightAware UK
Tue 12:20:33 PM 55.9476 4.0489 264° West 472 543 36,000  Level FlightAware UK
Tue 12:22:09 PM 55.9264 3.6778 264° West 470 541 36,000  Level FlightAware UK
Tue 12:22:39 PM 55.9196 3.5623 264° West 470 541 36,000  Level FlightAware UK
Tue 12:23:09 PM 55.9135 3.4466 265° West 470 541 36,000  Level FlightAware UK
Tue 12:23:39 PM 55.9112 3.3313 268° West 468 539 36,000  Level FlightAware UK
Tue 12:24:09 PM 55.9091 3.2161 268° West 470 541 36,000  Level FlightAware UK
Tue 12:24:57 PM 55.9045 3.0311 267° West 470 541 36,000  Level FlightAware UK
Tue 12:25:33 PM 55.9008 2.8925 267° West 472 543 36,000  Level FlightAware UK
Tue 12:26:38 PM 55.8939 2.6374 267° West 472 543 36,000  Level FlightAware UK
Tue 12:27:08 PM 55.8904 2.5212 267° West 472 543 36,000  Level FlightAware UK
Tue 12:27:38 PM 55.8868 2.4051 267° West 470 541 36,000  Level FlightAware UK
Tue 12:28:08 PM 55.8877 2.2883 271° West 470 541 36,000  Level FlightAware UK
Tue 12:28:30 PM 55.8900 2.2090 272° West 471 542 36,000  Level FlightAware ADS-B (EGNT / NCL)
Tue 12:29:03 PM 55.8927 2.0787 272° West 471 542 36,000  Level FlightAware ADS-B (EGNT / NCL)
Tue 12:29:44 PM 55.8956 1.9194 272° West 472 543 36,000  Level FlightAware UK
Tue 12:30:01 PM 55.8970 1.8605 272° West 472 543 36,000  Level FlightAware ADS-B
Tue 12:30:56 PM 55.9010 1.6403 272° West 472 543 36,000  Level FlightAware UK
Tue 12:31:01 PM 55.9013 1.6217 271° West 473 544 36,000  Level FlightAware ADS-B
Tue 12:31:44 PM 55.9040 1.4546 271° West 474 545 36,000  Level FlightAware UK
Tue 12:31:59 PM 55.9050 1.3959 271° West 475 547 36,000  Level FlightAware ADS-B
Tue 12:32:45 PM 55.9076 1.2169 271° West 476 548 36,000  Level FlightAware ADS-B
Tue 12:32:50 PM 55.9078 1.1974 271° West 476 548 36,000  Level FlightAware UK
Tue 12:33:26 PM 55.9099 1.0574 271° West 476 548 36,000  Level FlightAware UK
Tue 12:33:56 PM 55.9113 0.9400 271° West 476 548 36,000  Level FlightAware UK
Tue 12:34:10 PM 55.9118 0.8848 270° West 476 548 36,000  Level FlightAware ADS-B
Tue 12:35:01 PM 55.9138 0.6827 270° West 476 548 36,000  Level FlightAware UK
Tue 12:35:11 PM 55.9143 0.6461 270° West 476 548 36,000  Level FlightAware ADS-B
Tue 12:36:07 PM 55.9163 0.4254 270° West 476 548 36,000  Level FlightAware UK
Tue 12:36:12 PM 55.9163 0.4075 271° West 476 548 36,000  Level FlightAware ADS-B
Tue 12:37:07 PM 55.9172 0.2851 271° West 475 547 36,000  Level FlightAware ADS-B (EGPH / EDI)
Tue 12:37:49 PM 55.9185 0.0294 271° West 476 548 36,000  Level FlightAware ADS-B (EGPH / EDI)
Tue 12:38:21 PM 55.9190 -0.0965 270° West 476 548 36,000  Level FlightAware ADS-B
Tue 12:39:09 PM 55.9195 -0.2844 270° West 477 549 36,000  Level FlightAware ADS-B (EGPH / EDI)
Tue 12:39:50 PM 55.9196 -0.4431 270° West 477 549 36,000  Level FlightAware ADS-B (EGPH / EDI)
Tue 12:40:30 PM 55.9196 -0.5959 270° West 477 549 36,000  Level FlightAware ADS-B (EGPH / EDI)
Tue 12:41:04 PM 55.9194 -0.7347 270° West 477 549 36,000  Level FlightAware ADS-B (EGNT / NCL)
Tue 12:41:43 PM 55.9190 -0.8869 270° West 477 549 36,000  Level FlightAware ADS-B
Tue 12:42:15 PM 55.9185 -1.0116 270° West 478 550 36,000  Level FlightAware ADS-B (EGNT / NCL)
Tue 12:42:45 PM 55.9179 -1.1271 269° West 477 549 36,000  Level FlightAware ADS-B
Tue 12:43:19 PM 55.9172 -1.2616 269° West 477 549 36,000  Level FlightAware ADS-B (KLEX)
Tue 12:43:53 PM 55.9159 -1.3919 267° West 477 549 36,000  Level FlightAware ADS-B (EGPH / EDI)
Tue 12:44:23 PM 55.9043 -1.5110 258° West 476 548 36,000  Level FlightAware ADS-B
Tue 12:44:54 PM 55.8907 -1.6286 259° West 477 549 36,000  Level FlightAware ADS-B (EGPH / EDI)
Tue 12:45:25 PM 55.8774 -1.7438 258° West 477 549 36,000  Level FlightAware ADS-B
Tue 12:45:55 PM 55.8646 -1.8549 258° West 477 549 36,000  Level FlightAware ADS-B
Tue 12:46:31 PM 55.8475 -2.0030 258° West 478 550 36,000  Level FlightAware ADS-B
Tue 12:47:04 PM 55.8332 -2.1250 258° West 478 550 36,000  Level FlightAware ADS-B
Tue 12:47:35 PM 55.8184 -2.2495 258° West 478 550 36,000  Level FlightAware ADS-B (EGNT / NCL)
Tue 12:48:06 PM 55.8047 -2.3638 258° West 479 551 36,000  Level FlightAware ADS-B (EGNT / NCL)
Tue 12:48:36 PM 55.7905 -2.4807 258° West 479 551 36,000  Level FlightAware ADS-B (EGNT / NCL)
Tue 12:49:06 PM 55.7767 -2.5941 258° West 478 550 36,000  Level FlightAware ADS-B
Tue 12:49:44 PM 55.7589 -2.7393 258° West 478 550 36,000  Level FlightAware ADS-B (EGPH / EDI)
Tue 12:49:48 PM 55.7569 -2.7555 259° West 477 549 36,000  Level FlightAware ADS-B (EGPD / ABZ)
Tue 12:50:15 PM 55.7439 -2.8605 259° West 476 548 36,000  Level FlightAware ADS-B (KLEX)
Tue 12:50:30 PM 55.7367 -2.9183 257° West 478 550 36,000  Level FlightAware ADS-B
Tue 12:50:46 PM 55.7292 -2.9775 258° West 476 548 36,000  Level FlightAware ADS-B
Tue 12:51:17 PM 55.7142 -3.0961 258° West 476 548 36,000  Level FlightAware ADS-B (KLEX)
Tue 12:51:49 PM 55.6994 -3.2130 257° West 478 550 36,000  Level FlightAware ADS-B (EGPH / EDI)
Tue 12:52:09 PM 55.6890 -3.2932 258° West 475 547 36,000  Level FlightAware ADS-B
Tue 12:52:24 PM 55.6822 -3.3467 258° West 474 545 36,000  Level FlightAware ADS-B
Tue 12:52:54 PM 55.6674 -3.4606 258° West 474 545 36,000  Level FlightAware ADS-B
Tue 12:53:20 PM 55.6544 -3.5607 258° West 474 545 36,000  Level FlightAware ADS-B
Tue 12:53:24 PM 55.6526 -3.5745 258° West 474 545 36,000  Level FlightAware ADS-B
Tue 12:53:54 PM 55.6377 -3.6875 258° West 474 545 36,000  Level FlightAware ADS-B
Tue 12:54:11 PM 55.6288 -3.7552 257° West 477 549 36,000  Level FlightAware ADS-B
Tue 12:54:43 PM 55.6129 -3.8746 257° West 477 549 36,000  Level FlightAware ADS-B
Tue 12:55:13 PM 55.5980 -3.9859 257° West 477 549 36,000  Level FlightAware ADS-B
Tue 12:55:43 PM 55.5820 -4.1036 257° West 477 549 36,000  Level FlightAware ADS-B
Tue 12:55:55 PM 55.5764 -4.1449 256° West 477 549 36,000  Level FlightAware ADS-B (EGPH / EDI)
Tue 12:56:26 PM 55.5603 -4.2630 256° West 477 549 36,000  Level FlightAware ADS-B
Tue 12:56:59 PM 55.5434 -4.3855 256° West 477 549 36,000  Level FlightAware ADS-B (KFUL)
Tue 12:57:33 PM 55.5252 -4.5162 256° West 477 549 36,000  Level FlightAware ADS-B
Tue 12:58:04 PM 55.5090 -4.6318 256° West 477 549 36,000  Level FlightAware ADS-B
Tue 12:58:35 PM 55.4929 -4.7460 256° West 477 549 36,000  Level FlightAware ADS-B
Tue 12:59:06 PM 55.4757 -4.8660 256° West 477 549 36,000  Level FlightAware ADS-B
Tue 12:59:36 PM 55.4594 -4.9799 256° West 478 550 36,000  Level FlightAware ADS-B
Tue 01:00:08 PM 55.4419 -5.1016 256° West 477 549 36,000  Level FlightAware ADS-B (KFUL)
Tue 01:00:38 PM 55.4263 -5.2089 256° West 477 549 36,000  Level FlightAware ADS-B (EGPH / EDI)
Tue 01:01:04 PM 55.4118 -5.3073 257° West 475 547 36,000  Level FlightAware ADS-B
Tue 01:01:38 PM 55.3931 -5.4345 256° West 478 550 36,000  Level FlightAware ADS-B
Tue 01:01:51 PM 55.3852 -5.4881 256° West 477 549 36,000  Level FlightAware ADS-B
Tue 01:01:59 PM 55.3814 -5.5138 256° West 476 548 36,000  Level FlightAware ADS-B
Tue 01:02:11 PM 55.3753 -5.5546 255° West 479 551 36,000  Level FlightAware ADS-B
Tue 01:02:24 PM 55.3670 -5.6098 256° West 476 548 36,000  Level FlightAware ADS-B
Tue 01:02:45 PM 55.3553 -5.6880 256° West 477 549 36,000  Level FlightAware ADS-B (KFUL)
Tue 01:02:58 PM 55.3482 -5.7352 256° West 476 548 36,000  Level FlightAware ADS-B
Tue 01:03:04 PM 55.3445 -5.7600 256° West 477 549 36,000  Level FlightAware ADS-B
Tue 01:03:25 PM 55.3328 -5.8374 256° West 477 549 36,000  Level FlightAware ADS-B
Tue 01:03:34 PM 55.3274 -5.8726 256° West 477 549 36,000  Level FlightAware ADS-B (KLEX)
Tue 01:03:45 PM 55.3209 -5.9157 255° West 479 551 36,000  Level FlightAware ADS-B
Tue 01:04:20 PM 55.3018 -6.0405 255° West 479 551 36,000  Level FlightAware ADS-B (EGPH / EDI)
Tue 01:04:45 PM 55.2868 -6.1373 255° West 478 550 36,000  Level FlightAware ADS-B
Tue 01:05:14 PM 55.2699 -6.2461 256° West 476 548 36,000  Level FlightAware ADS-B
Tue 01:05:19 PM 55.2667 -6.2667 256° West 475 547 36,000  Level FlightAware ADS-B (KLEX)
Tue 01:05:53 PM 55.2472 -6.3913 255° West 477 549 36,000  Level FlightAware ADS-B
Tue 01:06:25 PM 55.2285 -6.5102 255° West 478 550 36,000  Level FlightAware ADS-B
Tue 01:07:02 PM 55.2093 -6.6306 254° West 479 551 36,000  Level FlightAware ADS-B
Tue 01:07:41 PM 55.1837 -6.7908 254° West 479 551 36,000  Level FlightAware ADS-B
Tue 01:08:20 PM 55.1599 -6.9382 254° West 478 550 36,000  Level FlightAware ADS-B (LFPO / ORY)
Tue 01:08:56 PM 55.1335 -7.0685 248° West 475 547 36,000  Level FlightAware ADS-B
Tue 01:09:30 PM 55.1063 -7.1875 249° West 476 548 36,000  Level FlightAware ADS-B (LFPO / ORY)
Tue 01:10:07 PM 55.0775 -7.3152 248° West 477 549 36,000  Level FlightAware ADS-B
Tue 01:10:44 PM 55.0468 -7.4495 248° West 477 549 36,000  Level FlightAware ADS-B (EGPH / EDI)
Tue 01:11:16 PM 55.0199 -7.5667 248° West 476 548 36,000  Level FlightAware UK
Tue 01:11:24 PM 55.0145 -7.5906 248° West 477 549 36,000  Level FlightAware ADS-B (EGPH / EDI)
Tue 01:12:02 PM 54.9824 -7.7302 248° West 476 548 36,000  Level FlightAware ADS-B
Tue 01:12:43 PM 54.9495 -7.8722 248° West 477 549 36,000  Level FlightAware ADS-B
Tue 01:13:16 PM 54.9215 -7.9921 248° West 474 545 36,000  Level FlightAware UK
Tue 01:13:23 PM 54.9165 -8.0146 248° West 475 547 36,000  Level FlightAware ADS-B
Tue 01:13:57 PM 54.8880 -8.1362 248° West 474 545 36,000  Level FlightAware ADS-B
Tue 01:14:37 PM 54.8554 -8.2747 248° West 474 545 36,000  Level FlightAware ADS-B
Tue 01:15:16 PM 54.8226 -8.4129 248° West 474 545 36,000  Level FlightAware ADS-B
Tue 01:15:46 PM 54.7975 -8.5182 248° West 474 545 36,000  Level FlightAware UK
Tue 01:15:57 PM 54.7896 -8.5506 248° West 475 547 36,000  Level FlightAware ADS-B
Tue 01:16:27 PM 54.7629 -8.6617 248° West 473 544 36,000  Level FlightAware ADS-B
Tue 01:17:07 PM 54.7291 -8.8018 248° West 472 543 36,000  Level FlightAware ADS-B
Tue 01:17:40 PM 54.7012 -8.9163 248° West 471 542 36,000  Level FlightAware ADS-B
Tue 01:18:20 PM 54.6675 -9.0540 248° West 471 542 36,000  Level FlightAware ADS-B
Tue 01:18:53 PM 54.6391 -9.1698 248° West 472 543 36,000  Level FlightAware ADS-B
Tue 01:19:34 PM 54.6043 -9.3104 248° West 472 543 36,000  Level FlightAware ADS-B
Tue 01:20:06 PM 54.5762 -9.4234 248° West 471 542 36,000  Level FlightAware ADS-B
Tue 01:20:46 PM 54.5414 -9.5621 248° West 471 542 36,000  Level FlightAware ADS-B
Tue 01:21:18 PM 54.5138 -9.6719 248° West 472 543 36,000  Level FlightAware ADS-B
Tue 01:21:53 PM 54.4836 -9.7912 247° West 473 544 36,000  Level FlightAware ADS-B
Tue 01:22:53 PM 54.4318 -9.9948 246° West 476 548 36,000  Level FlightAware ADS-B
Tue 01:23:42 PM 54.3871 -10.1686 246° West 476 548 36,000  Level FlightAware ADS-B
Tue 01:25:02 PM 54.3162 -10.4415 246° West 476 548 36,000  Level FlightAware ADS-B
Tue 01:26:14 PM 54.2515 -10.6879 246° West 473 544 36,000  Level FlightAware ADS-B
Tue 02:13:00 PM 54.0000 -20.0000 284° West 450 518 36,000  Level ETMS Enhanced Traffic Management System
Tue 02:14:00 PM 53.8862 -19.5691 263° West  Level Estimated
Tue 02:15:00 PM 53.8716 -19.7528 262° West  Level Estimated
Tue 02:16:00 PM 53.8567 -19.9364 262° West  Level Estimated
Tue 02:17:00 PM 53.8416 -20.1199 262° West  Level Estimated
Tue 02:18:00 PM 53.8261 -20.3033 262° West  Level Estimated
Tue 02:19:00 PM 54.2007 -21.4557 283° West 450 518 36,000  Level FlightAware Transoceanic
Tue 02:20:00 PM 54.2279 -21.6647 282° West 450 518 36,000  Level FlightAware Transoceanic
Tue 02:21:00 PM 54.2548 -21.8741 282° West 450 518 36,000  Level FlightAware Transoceanic
Tue 02:22:00 PM 54.2813 -22.0837 282° West 450 518 36,000  Level FlightAware Transoceanic
Tue 02:23:00 PM 54.3074 -22.2936 282° West 450 518 36,000  Level FlightAware Transoceanic
Tue 02:24:00 PM 54.3332 -22.5038 282° West 450 518 36,000  Level FlightAware Transoceanic
Tue 02:25:00 PM 54.3586 -22.7142 282° West 450 518 36,000  Level FlightAware Transoceanic
Tue 02:26:00 PM 54.3837 -22.9249 281° West 450 518 36,000  Level FlightAware Transoceanic
Tue 02:27:00 PM 54.4084 -23.1359 281° West 450 518 36,000  Level FlightAware Transoceanic
Tue 02:28:00 PM 54.4327 -23.3470 281° West 450 518 36,000  Level FlightAware Transoceanic
Tue 02:29:00 PM 54.4566 -23.5585 281° West 450 518 36,000  Level FlightAware Transoceanic
Tue 02:30:00 PM 54.4802 -23.7702 281° West 450 518 36,000  Level FlightAware Transoceanic
Tue 02:31:00 PM 54.5034 -23.9821 281° West 450 518 36,000  Level FlightAware Transoceanic
Tue 02:32:00 PM 54.5262 -24.1943 280° West 450 518 36,000  Level FlightAware Transoceanic
Tue 02:33:00 PM 54.5487 -24.4067 280° West 450 518 36,000  Level FlightAware Transoceanic
Tue 02:34:00 PM 54.5708 -24.6193 280° West 450 518 36,000  Level FlightAware Transoceanic
Tue 02:35:00 PM 54.5925 -24.8322 280° West 450 518 36,000  Level FlightAware Transoceanic
Tue 02:36:00 PM 54.6138 -25.0452 280° West 450 518 36,000  Level FlightAware Transoceanic
Tue 02:37:00 PM 54.6348 -25.2586 280° West 450 518 36,000  Level FlightAware Transoceanic
Tue 02:38:00 PM 54.6554 -25.4721 279° West 450 518 36,000  Level FlightAware Transoceanic
Tue 02:39:00 PM 54.6756 -25.6858 279° West 450 518 36,000  Level FlightAware Transoceanic
Tue 02:40:00 PM 54.6954 -25.8998 279° West 450 518 36,000  Level FlightAware Transoceanic
Tue 02:41:00 PM 54.7149 -26.1139 279° West 450 518 36,000  Level FlightAware Transoceanic
Tue 02:42:00 PM 54.7340 -26.3283 279° West 450 518 36,000  Level FlightAware Transoceanic
Tue 02:43:00 PM 54.7527 -26.5429 279° West 450 518 36,000  Level FlightAware Transoceanic
Tue 02:44:00 PM 54.7710 -26.7576 278° West 450 518 36,000  Level FlightAware Transoceanic
Tue 02:45:00 PM 54.7889 -26.9726 278° West 450 518 36,000  Level FlightAware Transoceanic
Tue 02:46:00 PM 54.8065 -27.1877 278° West 450 518 36,000  Level FlightAware Transoceanic
Tue 02:47:00 PM 54.8237 -27.4030 278° West 450 518 36,000  Level FlightAware Transoceanic
Tue 02:48:00 PM 54.8405 -27.6185 278° West 450 518 36,000  Level FlightAware Transoceanic
Tue 02:49:00 PM 54.8569 -27.8342 277° West 450 518 36,000  Level FlightAware Transoceanic
Tue 02:50:00 PM 54.8730 -28.0501 277° West 450 518 36,000  Level FlightAware Transoceanic
Tue 02:51:00 PM 54.8886 -28.2661 277° West 450 518 36,000  Level FlightAware Transoceanic
Tue 02:52:00 PM 54.9039 -28.4823 277° West 450 518 36,000  Level FlightAware Transoceanic
Tue 02:53:00 PM 54.9188 -28.6987 277° West 450 518 36,000  Level FlightAware Transoceanic
Tue 02:54:00 PM 54.9333 -28.9152 277° West 450 518 36,000  Level FlightAware Transoceanic
Tue 02:55:00 PM 54.9474 -29.1319 276° West 450 518 36,000  Level FlightAware Transoceanic
Tue 02:56:00 PM 54.9611 -29.3487 276° West 450 518 36,000  Level FlightAware Transoceanic
Tue 02:57:00 PM 54.9745 -29.5657 276° West 450 518 36,000  Level FlightAware Transoceanic
Tue 02:58:00 PM 54.9874 -29.7827 276° West 450 518 36,000  Level FlightAware Transoceanic
Tue 02:59:00 PM 54.9540 -29.9641 252° West  Level Estimated
Tue 03:00:00 PM 54.9204 -30.1451 252° West  Level Estimated
Tue 03:01:00 PM 54.8865 -30.3258 252° West  Level Estimated
Tue 03:02:00 PM 54.8523 -30.5062 252° West  Level Estimated
Tue 03:03:00 PM 54.8178 -30.6863 252° West  Level Estimated
Tue 03:04:00 PM 54.7831 -30.8661 252° West  Level Estimated
Tue 03:05:00 PM 54.7481 -31.0456 251° West  Level Estimated
Tue 03:06:00 PM 54.7129 -31.2248 251° West  Level Estimated
Tue 03:07:00 PM 54.6774 -31.4037 251° West  Level Estimated
Tue 03:08:00 PM 54.6416 -31.5822 251° West  Level Estimated
Tue 03:09:00 PM 54.6056 -31.7604 251° West  Level Estimated
Tue 03:10:00 PM 54.5693 -31.9384 251° West  Level Estimated
Tue 03:11:00 PM 54.5327 -32.1160 251° West  Level Estimated
Tue 03:12:00 PM 54.4959 -32.2932 250° West  Level Estimated
Tue 03:13:00 PM 54.4588 -32.4702 250° West  Level Estimated
Tue 03:14:00 PM 54.4215 -32.6468 250° West  Level Estimated
Tue 03:15:00 PM 54.3839 -32.8232 250° West  Level Estimated
Tue 03:16:00 PM 54.3460 -32.9991 250° West  Level Estimated
Tue 03:17:00 PM 54.3079 -33.1748 250° West  Level Estimated
Tue 03:18:00 PM 54.2696 -33.3502 250° West  Level Estimated
Tue 03:19:00 PM 54.2309 -33.5252 249° West  Level Estimated
Tue 03:20:00 PM 54.1921 -33.6999 249° West  Level Estimated
Tue 03:21:00 PM 54.1530 -33.8742 249° West  Level Estimated
Tue 03:22:00 PM 54.1136 -34.0482 249° West  Level Estimated
Tue 03:23:00 PM 54.0740 -34.2219 249° West  Level Estimated
Tue 03:24:00 PM 54.0341 -34.3953 249° West  Level Estimated
Tue 03:25:00 PM 53.9940 -34.5683 249° West  Level Estimated
Tue 03:26:00 PM 53.9536 -34.7410 248° West  Level Estimated
Tue 03:27:00 PM 53.9130 -34.9134 248° West  Level Estimated
Tue 03:28:00 PM 53.8721 -35.0854 248° West  Level Estimated
Tue 03:29:00 PM 53.8310 -35.2571 248° West  Level Estimated
Tue 03:30:00 PM 53.7897 -35.4285 248° West  Level Estimated
Tue 03:31:00 PM 53.7481 -35.5995 248° West  Level Estimated
Tue 03:32:00 PM 53.7062 -35.7701 248° West  Level Estimated
Tue 03:33:00 PM 53.6642 -35.9405 247° West  Level Estimated
Tue 03:34:00 PM 53.6218 -36.1105 247° West  Level Estimated
Tue 03:35:00 PM 53.5793 -36.2801 247° West  Level Estimated
Tue 03:36:00 PM 53.5365 -36.4494 247° West  Level Estimated
Tue 03:37:00 PM 53.4934 -36.6184 247° West  Level Estimated
Tue 03:38:00 PM 53.4502 -36.7870 247° West  Level Estimated
Tue 03:39:00 PM 53.4067 -36.9553 247° West  Level Estimated
Tue 03:40:00 PM 53.3629 -37.1232 246° West  Level Estimated
Tue 03:41:00 PM 53.3189 -37.2908 246° West  Level Estimated
Tue 03:42:00 PM 53.2747 -37.4581 246° West  Level Estimated
Tue 03:43:00 PM 53.2302 -37.6250 246° West  Level Estimated
Tue 03:44:00 PM 53.1856 -37.7915 246° West  Level Estimated
Tue 03:45:00 PM 53.1406 -37.9577 246° West  Level Estimated
Tue 03:46:00 PM 53.0955 -38.1236 246° West  Level Estimated
Tue 03:47:00 PM 53.0501 -38.2891 246° West  Level Estimated
Tue 03:48:00 PM 53.0045 -38.4542 245° Southwest  Level Estimated
Tue 03:49:00 PM 52.9587 -38.6190 245° Southwest  Level Estimated
Tue 03:50:00 PM 52.9126 -38.7835 245° Southwest  Level Estimated
Tue 03:51:00 PM 52.8663 -38.9476 245° Southwest  Level Estimated
Tue 03:52:00 PM 52.8198 -39.1113 245° Southwest  Level Estimated
Tue 03:53:00 PM 52.7730 -39.2747 245° Southwest  Level Estimated
Tue 03:54:00 PM 52.7261 -39.4378 245° Southwest  Level Estimated
Tue 03:55:00 PM 52.6789 -39.6005 244° Southwest  Level Estimated
Tue 03:56:00 PM 52.6315 -39.7628 244° Southwest  Level Estimated
Tue 03:57:00 PM 52.5839 -39.9248 244° Southwest  Level Estimated
Tue 03:58:00 PM 52.5360 -40.0865 244° Southwest  Level Estimated
Tue 03:59:00 PM 52.4879 -40.2478 244° Southwest  Level Estimated
Tue 04:00:00 PM 52.4396 -40.4087 244° Southwest  Level Estimated
Tue 04:01:00 PM 52.3911 -40.5693 244° Southwest  Level Estimated
Tue 04:02:00 PM 52.3424 -40.7295 244° Southwest  Level Estimated
Tue 04:03:00 PM 52.2935 -40.8894 243° Southwest  Level Estimated
Tue 04:04:00 PM 52.2443 -41.0489 243° Southwest  Level Estimated
Tue 04:05:00 PM 52.1949 -41.2081 243° Southwest  Level Estimated
Tue 04:06:00 PM 52.1453 -41.3669 243° Southwest  Level Estimated
Tue 04:07:00 PM 52.0955 -41.5254 243° Southwest  Level Estimated
Tue 04:08:00 PM 52.0455 -41.6835 243° Southwest  Level Estimated
Tue 04:09:00 PM 51.9953 -41.8412 243° Southwest  Level Estimated
Tue 04:10:00 PM 51.9449 -41.9986 243° Southwest  Level Estimated
Tue 04:11:00 PM 51.8942 -42.1557 242° Southwest  Level Estimated
Tue 04:12:00 PM 51.8434 -42.3124 242° Southwest  Level Estimated
Tue 04:13:00 PM 51.7923 -42.4687 242° Southwest  Level Estimated
Tue 04:14:00 PM 51.7411 -42.6247 242° Southwest  Level Estimated
Tue 04:15:00 PM 51.6896 -42.7803 242° Southwest  Level Estimated
Tue 04:16:00 PM 51.6379 -42.9356 242° Southwest  Level Estimated
Tue 04:17:00 PM 51.5860 -43.0905 242° Southwest  Level Estimated
Tue 04:18:00 PM 51.5340 -43.2451 242° Southwest  Level Estimated
Tue 04:19:00 PM 51.4817 -43.3993 241° Southwest  Level Estimated
Tue 04:20:00 PM 51.4292 -43.5532 241° Southwest  Level Estimated
Tue 04:21:00 PM 51.3765 -43.7067 241° Southwest  Level Estimated
Tue 04:22:00 PM 51.3236 -43.8598 241° Southwest  Level Estimated
Tue 04:23:00 PM 51.2705 -44.0126 241° Southwest  Level Estimated
Tue 04:24:00 PM 51.2172 -44.1651 241° Southwest  Level Estimated
Tue 04:25:00 PM 51.1637 -44.3171 241° Southwest  Level Estimated
Tue 04:26:00 PM 51.1101 -44.4689 241° Southwest  Level Estimated
Tue 04:27:00 PM 51.0562 -44.6203 241° Southwest  Level Estimated
Tue 04:28:00 PM 51.0021 -44.7713 240° Southwest  Level Estimated
Tue 04:29:00 PM 50.9478 -44.9220 240° Southwest  Level Estimated
Tue 04:30:00 PM 50.8934 -45.0723 240° Southwest  Level Estimated
Tue 04:31:00 PM 50.8387 -45.2223 240° Southwest  Level Estimated
Tue 04:32:00 PM 50.7839 -45.3719 240° Southwest  Level Estimated
Tue 04:33:00 PM 50.7289 -45.5212 240° Southwest  Level Estimated
Tue 04:34:00 PM 50.6736 -45.6701 240° Southwest  Level Estimated
Tue 04:35:00 PM 50.6182 -45.8187 240° Southwest  Level Estimated
Tue 04:36:00 PM 50.5626 -45.9669 239° Southwest  Level Estimated
Tue 04:37:00 PM 50.5068 -46.1148 239° Southwest  Level Estimated
Tue 04:38:00 PM 50.4508 -46.2623 239° Southwest  Level Estimated
Tue 04:39:00 PM 50.3947 -46.4095 239° Southwest  Level Estimated
Tue 04:40:00 PM 50.3383 -46.5563 239° Southwest  Level Estimated
Tue 04:41:00 PM 50.2818 -46.7028 239° Southwest  Level Estimated
Tue 04:42:00 PM 50.2251 -46.8489 239° Southwest  Level Estimated
Tue 04:43:00 PM 50.1682 -46.9947 239° Southwest  Level Estimated
Tue 04:44:00 PM 50.1111 -47.1401 239° Southwest  Level Estimated
Tue 04:45:00 PM 50.0538 -47.2852 238° Southwest  Level Estimated
Tue 04:46:00 PM 49.9964 -47.4299 238° Southwest  Level Estimated
Tue 04:47:00 PM 49.9388 -47.5743 238° Southwest  Level Estimated
Tue 04:48:00 PM 49.8810 -47.7184 238° Southwest  Level Estimated
Tue 04:49:00 PM 49.8230 -47.8621 238° Southwest  Level Estimated
Tue 04:49:46 PM 52.6500 -51.4167 237° Southwest 430 495 36,000  Level Gander Center
Tue 04:50:00 PM 49.7648 -48.0054 238° Southwest  Level Estimated
Tue 04:50:46 PM 52.6167 -51.6000 253° West 420 483 36,000  Level Gander Center
Tue 04:51:00 PM 49.7065 -48.1484 238° Southwest  Level Estimated
Tue 04:51:46 PM 52.5667 -51.8000 248° West 420 483 36,000  Level Gander Center
Tue 04:52:00 PM 49.6480 -48.2911 238° Southwest  Level Estimated
Tue 04:52:46 PM 52.5333 -51.9667 252° West 420 483 36,000  Level Gander Center
Tue 04:53:00 PM 49.5893 -48.4334 238° Southwest  Level Estimated
Tue 04:53:46 PM 52.5000 -52.1500 253° West 440 506 36,000  Level Gander Center
Tue 04:54:00 PM 49.5304 -48.5754 237° Southwest  Level Estimated
Tue 04:54:46 PM 52.4333 -52.3167 237° Southwest 420 483 36,000  Level Gander Center
Tue 04:55:46 PM 52.4000 -52.5167 255° West 430 495 36,000  Level Gander Center
Tue 04:56:46 PM 52.3667 -52.7000 253° West 420 483 36,000  Level Gander Center
Tue 04:57:46 PM 52.3167 -52.9000 248° West 410 472 36,000  Level Gander Center
Tue 04:58:46 PM 52.2833 -53.0667 252° West 420 483 36,000  Level Gander Center
Tue 04:59:46 PM 52.2167 -53.2500 239° Southwest 420 483 36,000  Level Gander Center
Tue 05:00:46 PM 52.1833 -53.4167 252° West 430 495 36,000  Level Gander Center
Tue 05:01:46 PM 52.1333 -53.5833 244° Southwest 420 483 36,000  Level Gander Center
Tue 05:02:46 PM 52.0833 -53.7667 246° West 420 483 36,000  Level Gander Center
Tue 05:03:46 PM 52.0333 -53.9333 244° Southwest 430 495 36,000  Level Gander Center
Tue 05:05:42 PM 51.8833 -54.2333 231° Southwest 430 495 36,000  Level Gander Center
Tue 05:06:42 PM 51.8000 -54.3833 228° Southwest 420 483 36,000  Level Gander Center
Tue 05:07:42 PM 51.7500 -54.5500 244° Southwest 430 495 36,000  Level Gander Center
Tue 05:08:42 PM 51.6667 -54.7000 228° Southwest 430 495 36,000  Level Gander Center
Tue 05:09:42 PM 51.6000 -54.8500 234° Southwest 420 483 36,000  Level Gander Center
Tue 05:10:42 PM 51.5333 -54.9833 231° Southwest 430 495 36,000  Level Gander Center
Tue 05:43:33 PM 49.0667 -59.7667 230° Southwest 430 495 36,000  Level Moncton Center
Tue 05:44:00 PM 49.6399 -58.7517 230° Southwest  Level FlightAware Approximate
Tue 05:44:33 PM 49.0000 -59.9000 233° Southwest 430 495 36,000  Level Moncton Center
Tue 05:45:00 PM 49.5811 -58.8600 230° Southwest  Level FlightAware Approximate
Tue 05:45:33 PM 48.9000 -60.0667 228° Southwest 430 495 36,000  Level Moncton Center
Tue 05:46:00 PM 49.5221 -58.9681 230° Southwest  Level FlightAware Approximate
Tue 05:46:33 PM 48.8500 -60.2000 240° Southwest 430 495 36,000  Level Moncton Center
Tue 05:47:00 PM 49.4631 -59.0759 230° Southwest  Level FlightAware Approximate
Tue 05:47:33 PM 48.7500 -60.3333 221° Southwest 430 495 36,000  Level Moncton Center
Tue 05:48:00 PM 49.4039 -59.1835 230° Southwest  Level FlightAware Approximate
Tue 05:48:33 PM 48.6833 -60.4667 233° Southwest 430 495 36,000  Level Moncton Center
Tue 05:49:33 PM 48.6000 -60.6000 227° Southwest 430 495 36,000  Level Moncton Center
Tue 05:50:33 PM 48.5333 -60.7333 233° Southwest 430 495 36,000  Level Moncton Center
Tue 05:51:33 PM 48.4333 -60.8667 222° Southwest 430 495 36,000  Level Moncton Center
Tue 05:52:33 PM 48.3667 -61.0000 233° Southwest 420 483 36,000  Level Moncton Center
Tue 05:53:33 PM 48.2833 -61.1333 227° Southwest 430 495 36,000  Level Moncton Center
Tue 05:54:33 PM 48.2167 -61.2833 236° Southwest 430 495 36,000  Level Moncton Center
Tue 05:55:33 PM 48.1333 -61.4167 227° Southwest 430 495 36,000  Level Moncton Center
Tue 05:56:33 PM 48.0500 -61.5333 223° Southwest 430 495 36,000  Level Moncton Center
Tue 05:57:33 PM 47.9667 -61.6667 227° Southwest 440 506 36,000  Level Moncton Center
Tue 05:58:33 PM 47.8833 -61.8000 227° Southwest 430 495 36,000  Level Moncton Center
Tue 05:59:33 PM 47.8000 -61.9500 230° Southwest 430 495 36,000  Level Moncton Center
Tue 06:00:33 PM 47.7333 -62.0500 225° Southwest 430 495 36,000  Level Moncton Center
Tue 06:01:33 PM 47.6500 -62.2167 233° Southwest 430 495 36,000  Level Moncton Center
Tue 06:02:33 PM 47.5667 -62.3333 223° Southwest 430 495 36,000  Level Moncton Center
Tue 06:03:33 PM 47.4833 -62.4667 227° Southwest 430 495 36,000  Level Moncton Center
Tue 06:04:33 PM 47.4000 -62.5833 223° Southwest 430 495 36,000  Level Moncton Center
Tue 06:05:33 PM 47.3167 -62.7500 234° Southwest 430 495 36,000  Level Moncton Center
Tue 06:06:33 PM 47.2333 -62.8667 224° Southwest 430 495 36,000  Level Moncton Center
Tue 06:07:33 PM 47.1500 -63.0000 227° Southwest 430 495 36,000  Level Moncton Center
Tue 06:08:33 PM 47.0667 -63.1167 224° Southwest 430 495 36,000  Level Moncton Center
Tue 06:10:33 PM 46.9167 -63.3667 229° Southwest 430 495 36,000  Level Moncton Center
Tue 06:11:33 PM 46.8333 -63.5000 228° Southwest 430 495 36,000  Level Moncton Center
Tue 06:12:33 PM 46.7500 -63.6333 228° Southwest 430 495 36,000  Level Moncton Center
Tue 06:13:33 PM 46.6667 -63.7667 228° Southwest 430 495 36,000  Level Moncton Center
Tue 06:14:33 PM 46.5833 -63.8833 224° Southwest 430 495 36,000  Level Moncton Center
Tue 06:15:33 PM 46.5000 -64.0000 224° Southwest 430 495 36,000  Level Moncton Center
Tue 06:16:33 PM 46.4167 -64.1333 228° Southwest 430 495 36,000  Level Moncton Center
Tue 06:22:12 PM 45.9522 -64.8411 226° Southwest 423 487 36,000  Level FlightAware ADS-B (EGHI / SOU)
Tue 06:22:50 PM 45.9090 -64.9043 226° Southwest 422 486 36,000  Level FlightAware ADS-B (EGHI / SOU)
Tue 06:23:42 PM 45.8344 -65.0130 226° Southwest 422 486 36,000  Level FlightAware ADS-B (EGHI / SOU)
Tue 06:24:27 PM 45.7659 -65.1124 226° Southwest 424 488 36,000  Level FlightAware ADS-B (EGHI / SOU)
Tue 06:25:03 PM 45.7175 -65.1825 225° Southwest 423 487 36,000  Level FlightAware ADS-B (EGHI / SOU)
Tue 06:25:43 PM 45.6619 -65.2628 225° Southwest 422 486 36,000  Level FlightAware ADS-B (EGHI / SOU)
Tue 06:26:32 PM 45.5957 -65.3583 225° Southwest 424 488 36,000  Level FlightAware ADS-B (EGHI / SOU)
Tue 06:27:02 PM 45.5543 -65.4177 225° Southwest 424 488 36,000  Level FlightAware ADS-B (EGHI / SOU)
Tue 06:27:33 PM 45.5136 -65.4758 225° Southwest 426 490 36,000  Level FlightAware ADS-B (EGHI / SOU)
Tue 06:28:12 PM 45.4563 -65.5576 225° Southwest 429 494 36,000  Level FlightAware ADS-B (EGHI / SOU)
Tue 06:28:42 PM 45.4168 -65.6137 225° Southwest 429 494 36,000  Level FlightAware ADS-B (EGHI / SOU)
Tue 06:29:13 PM 45.3710 -65.6788 225° Southwest 431 496 36,000  Level FlightAware ADS-B (EGHI / SOU)
Tue 06:29:53 PM 45.3155 -65.7575 225° Southwest 434 499 36,000  Level FlightAware ADS-B (EGHI / SOU)
Tue 06:30:23 PM 45.2755 -65.8141 225° Southwest 436 502 36,000  Level FlightAware ADS-B (EGHI / SOU)
Tue 06:31:02 PM 45.2227 -65.8885 225° Southwest 437 503 36,000  Level FlightAware ADS-B (EGHI / SOU)
Tue 06:31:33 PM 45.1721 -65.9596 225° Southwest 435 501 36,000  Level FlightAware ADS-B (EGHI / SOU)
Tue 06:32:03 PM 45.1296 -66.0191 225° Southwest 431 496 36,000  Level FlightAware ADS-B (EGHI / SOU)
Tue 06:32:33 PM 45.0869 -66.0785 225° Southwest 427 491 36,000  Level FlightAware ADS-B (EGHI / SOU)
Tue 06:33:12 PM 45.0340 -66.1525 225° Southwest 423 487 36,000  Level FlightAware ADS-B (EGHI / SOU)
Tue 06:33:42 PM 44.9906 -66.2129 225° Southwest 419 482 36,000  Level FlightAware ADS-B (EGHI / SOU)
Tue 06:34:12 PM 44.9504 -66.2689 225° Southwest 418 481 36,000  Level FlightAware ADS-B (EGHI / SOU)
Tue 06:35:24 PM 44.8563 -66.4004 229° Southwest 408 470 36,000  Level FlightAware ADS-B (EGHI / SOU)
Tue 06:36:04 PM 44.8034 -66.4893 230° Southwest 405 466 36,000  Level FlightAware ADS-B (EGHI / SOU)
Tue 06:36:36 PM 44.7660 -66.5514 230° Southwest 405 466 36,000  Level FlightAware ADS-B (EGHI / SOU)
Tue 06:37:54 PM 44.6703 -66.7061 229° Southwest 400 460 36,000  Level FlightAware ADS-B (EGHI / SOU)
Tue 06:38:57 PM 44.5931 -66.8302 229° Southwest 401 461 36,000  Level FlightAware ADS-B (EGHI / SOU)
Tue 06:39:36 PM 44.5464 -66.9051 229° Southwest 401 461 36,000  Level FlightAware ADS-B (EGHI / SOU)
Tue 06:40:06 PM 44.5090 -66.9650 229° Southwest 401 461 36,000  Level FlightAware ADS-B (EGHI / SOU)
Tue 06:40:36 PM 44.4739 -67.0209 229° Southwest 399 459 36,000  Level FlightAware ADS-B (EGHI / SOU)
Tue 06:41:06 PM 44.4378 -67.0784 229° Southwest 393 452 36,000  Level FlightAware ADS-B (EGHI / SOU)
Tue 06:41:46 PM 44.3890 -67.1557 229° Southwest 388 447 36,000  Level FlightAware ADS-B (EGHI / SOU)
Tue 06:42:17 PM 44.3549 -67.2097 229° Southwest 388 447 36,000  Level FlightAware ADS-B (EGHI / SOU)
Tue 06:42:56 PM 44.3065 -67.2862 229° Southwest 386 444 36,000  Level FlightAware ADS-B (EGHI / SOU)
Tue 06:43:27 PM 44.2702 -67.3432 229° Southwest 380 437 36,000  Level FlightAware ADS-B (EGHI / SOU)
Tue 06:44:06 PM 44.2259 -67.4129 229° Southwest 378 435 36,000  Level FlightAware ADS-B (EGHI / SOU)
Tue 06:44:37 PM 44.1891 -67.4708 229° Southwest 376 433 36,000  Level FlightAware ADS-B (EGHI / SOU)
Tue 06:45:16 PM 44.1445 -67.5406 228° Southwest 372 428 36,000  Level FlightAware ADS-B (EGHI / SOU)
Tue 06:45:46 PM 44.1097 -67.5948 228° Southwest 370 426 36,000  Level FlightAware ADS-B (EGHI / SOU)
Tue 06:46:16 PM 44.0761 -67.6472 228° Southwest 368 423 36,000  Level FlightAware ADS-B (EGHI / SOU)
Tue 06:46:47 PM 44.0415 -67.7011 228° Southwest 365 420 36,000  Level FlightAware ADS-B (EGHI / SOU)
Tue 06:47:17 PM 44.0078 -67.7534 228° Southwest 363 418 36,000  Level FlightAware ADS-B (EGHI / SOU)
Tue 06:47:47 PM 43.9744 -67.8053 228° Southwest 363 418 36,000  Level FlightAware ADS-B (EGHI / SOU)
Tue 06:48:17 PM 43.9407 -67.8574 228° Southwest 365 420 36,000  Level FlightAware ADS-B (EGHI / SOU)
Tue 06:48:56 PM 43.9016 -67.9178 228° Southwest 365 420 36,000  Level FlightAware ADS-B (EGHI / SOU)
Tue 06:49:27 PM 43.8617 -67.9793 228° Southwest 365 420 36,000  Level FlightAware ADS-B (EGHI / SOU)
Tue 06:50:06 PM 43.8179 -68.0466 228° Southwest 365 420 36,000  Level FlightAware ADS-B (EGHI / SOU)
Tue 06:50:36 PM 43.7838 -68.0990 228° Southwest 363 418 36,000  Level FlightAware ADS-B (EGHI / SOU)
Tue 06:51:06 PM 43.7541 -68.1445 228° Southwest 362 417 36,000  Level FlightAware ADS-B (EGHI / SOU)
Tue 06:51:47 PM 43.7046 -68.2203 228° Southwest 360 414 36,000  Level FlightAware ADS-B (EGHI / SOU)
Tue 06:52:26 PM 43.6607 -68.2870 228° Southwest 360 414 36,000  Level FlightAware ADS-B (EGHI / SOU)
Tue 06:52:56 PM 43.6269 -68.3385 228° Southwest 360 414 36,000  Level FlightAware ADS-B (EGHI / SOU)
Tue 06:53:27 PM 43.5963 -68.3849 228° Southwest 360 414 36,000  Level FlightAware ADS-B (EGHI / SOU)
Tue 06:53:57 PM 43.5637 -68.4343 228° Southwest 363 418 36,000  Level FlightAware ADS-B (EGHI / SOU)
Tue 06:54:27 PM 43.5260 -68.4914 228° Southwest 365 420 36,000  Level FlightAware ADS-B (EGHI / SOU)
Tue 06:55:06 PM 43.4826 -68.5569 228° Southwest 366 421 36,000  Level FlightAware ADS-B (EGHI / SOU)
Tue 06:55:36 PM 43.4461 -68.6120 228° Southwest 367 422 36,000  Level FlightAware ADS-B (EGHI / SOU)
Tue 06:56:06 PM 43.4133 -68.6614 228° Southwest 370 426 36,000  Level FlightAware ADS-B (EGHI / SOU)
Tue 06:56:37 PM 43.3769 -68.7161 228° Southwest 369 425 36,000  Level FlightAware ADS-B (EGHI / SOU)
Tue 06:57:14 PM 43.3357 -68.7778 228° Southwest 369 425 36,000  Level FlightAware ADS-B
Tue 06:57:26 PM 43.3207 -68.8001 227° Southwest 368 423 36,000  Level FlightAware ADS-B (EGHI / SOU)
Tue 06:58:07 PM 43.2751 -68.8682 227° Southwest 368 423 36,000  Level FlightAware ADS-B (EGHI / SOU)
Tue 06:58:37 PM 43.2393 -68.9216 227° Southwest 368 423 36,000  Level FlightAware ADS-B
Tue 06:59:07 PM 43.2046 -68.9733 227° Southwest 367 422 36,000  Level FlightAware ADS-B (EGHI / SOU)
Tue 07:00:27 PM 43.1122 -69.1102 227° Southwest 367 422 36,000  Level FlightAware ADS-B (EGHI / SOU)
Tue 07:01:03 PM 43.0719 -69.1699 227° Southwest 370 426 36,000  Level FlightAware ADS-B
Tue 07:01:08 PM 43.0641 -69.1814 228° Southwest 365 420 36,000  Level FlightAware ADS-B
Tue 07:01:21 PM 43.0493 -69.2033 228° Southwest 366 421 36,000  Level FlightAware ADS-B
Tue 07:01:27 PM 43.0417 -69.2144 228° Southwest 367 422 36,000  Level FlightAware ADS-B
Tue 07:01:57 PM 43.0074 -69.2649 227° Southwest 372 428 36,000  Level FlightAware ADS-B (EGHI / SOU)
Tue 07:02:27 PM 42.9728 -69.3156 227° Southwest 370 426 36,000  Level FlightAware ADS-B (EGHI / SOU)
Tue 07:02:32 PM 42.9672 -69.3239 227° Southwest 371 427 36,000  Level FlightAware ADS-B (EGHI / SOU)
Tue 07:03:02 PM 42.9313 -69.3766 228° Southwest 367 422 36,000  Level FlightAware ADS-B
Tue 07:03:16 PM 42.9148 -69.4008 228° Southwest 368 423 36,000  Level FlightAware ADS-B
Tue 07:03:48 PM 42.8799 -69.4519 227° Southwest 374 430 36,000  Level FlightAware ADS-B
Tue 07:04:26 PM 42.8347 -69.5178 227° Southwest 376 433 36,000  Level FlightAware ADS-B (EGHI / SOU)
Tue 07:04:57 PM 42.7964 -69.5737 227° Southwest 379 436 36,000  Level FlightAware ADS-B (EGHI / SOU)
Tue 07:05:32 PM 42.7543 -69.6349 227° Southwest 379 436 36,000  Level FlightAware ADS-B
Tue 07:06:06 PM 42.7129 -69.6948 227° Southwest 376 433 36,000  Level FlightAware ADS-B (EGHI / SOU)
Tue 07:06:36 PM 42.6779 -69.7455 227° Southwest 376 433 36,000  Level FlightAware ADS-B
Tue 07:07:10 PM 42.6370 -69.8047 227° Southwest 374 430 36,000  Level FlightAware ADS-B
Tue 07:07:44 PM 42.5975 -69.8617 227° Southwest 376 433 36,000  Level FlightAware ADS-B
Tue 07:08:14 PM 42.5615 -69.9137 227° Southwest 377 434 36,000  Level FlightAware ADS-B (EGHI / SOU)
Tue 07:08:46 PM 42.5235 -69.9683 227° Southwest 379 436 36,000  Level FlightAware ADS-B (ESTA / AGH)
Tue 07:09:22 PM 42.4796 -70.0310 227° Southwest 379 436 36,000  Level FlightAware ADS-B
Tue 07:09:54 PM 42.4423 -70.0843 227° Southwest 377 434 36,000  Level FlightAware ADS-B
Tue 07:10:24 PM 42.4061 -70.1361 227° Southwest 378 435 36,000  Level FlightAware ADS-B
Tue 07:10:54 PM 42.3697 -70.1880 227° Southwest 379 436 36,000  Level FlightAware ADS-B
Tue 07:11:26 PM 42.3325 -70.2410 227° Southwest 379 436 36,000  Level FlightAware ADS-B
Tue 07:11:56 PM 42.2948 -70.2946 227° Southwest 381 438 36,000  Level FlightAware ADS-B
Tue 07:20:33 PM 41.6455 -71.1735 225° Southwest 387 445 36,000  Level FlightAware ADS-B
Tue 07:21:03 PM 41.6066 -71.2244 225° Southwest 386 444 36,000  Level FlightAware ADS-B
Tue 07:21:08 PM 41.6008 -71.2319 224° Southwest 392 451 36,000  Level FlightAware ADS-B (KOWD)
Tue 07:21:26 PM 41.5777 -71.2621 224° Southwest 392 451 36,000  Level FlightAware ADS-B (KOWD)
Tue 07:21:41 PM 41.5611 -71.2837 224° Southwest 390 449 36,000  Level FlightAware ADS-B (KOWD)
Tue 07:22:13 PM 41.5166 -71.3416 225° Southwest 384 442 36,000  Level FlightAware ADS-B
Tue 07:22:43 PM 41.4787 -71.3908 224° Southwest 389 448 36,000  Level FlightAware ADS-B
Tue 07:23:20 PM 41.4313 -71.4524 224° Southwest 388 447 36,000  Level FlightAware ADS-B
Tue 07:23:54 PM 41.3998 -71.4932 224° Southwest 388 447 36,000  Level FlightAware ADS-B (KSNC)
Tue 07:24:10 PM 41.3858 -71.5114 224° Southwest 388 447 36,000  Level FlightAware ADS-B (KSNC)
Tue 07:24:42 PM 41.3247 -71.5903 225° Southwest 385 443 36,000  Level FlightAware ADS-B
Tue 07:24:45 PM 41.3216 -71.5942 224° Southwest 391 450 36,000  Level FlightAware ADS-B (KSNC)
Tue 07:26:03 PM 41.2236 -71.7205 224° Southwest 391 450 36,000  Level FlightAware ADS-B (KSNC)
Tue 07:26:34 PM 41.1802 -71.7761 224° Southwest 390 449 36,000  Level FlightAware ADS-B (KSNC)
Tue 07:27:04 PM 41.1404 -71.8270 224° Southwest 390 449 36,000  Level FlightAware ADS-B (KSNC)
Tue 07:27:44 PM 41.0888 -71.8931 224° Southwest 390 449 36,000  Level FlightAware ADS-B (KSNC)
Tue 07:28:14 PM 41.0506 -71.9419 224° Southwest 391 450 36,000  Level FlightAware ADS-B (KSNC)
Tue 07:29:09 PM 40.9785 -72.0334 224° Southwest 394 453 36,000  Level FlightAware ADS-B (KSNC)
Tue 07:30:01 PM 40.9100 -72.1203 224° Southwest 397 457 36,000  Level FlightAware ADS-B (KSNC)
Tue 07:30:47 PM 40.8511 -72.1948 224° Southwest 398 458 36,000  Level FlightAware ADS-B (KSNC)
Tue 07:31:31 PM 40.7949 -72.2654 224° Southwest 397 457 36,000  Level FlightAware ADS-B (KSNC)
Tue 07:32:10 PM 40.7398 -72.3349 224° Southwest 397 457 36,000  Level FlightAware ADS-B (KSNC)
Tue 07:32:41 PM 40.6984 -72.3868 224° Southwest 398 458 36,000  Level FlightAware ADS-B (KSNC)
Tue 07:33:12 PM 40.6569 -72.4389 224° Southwest 400 460 36,000  Level FlightAware ADS-B (KSNC)
Tue 07:33:56 PM 40.5997 -72.5103 224° Southwest 400 460 36,000  Level FlightAware ADS-B (KSNC)
Tue 07:34:30 PM 40.5560 -72.5649 224° Southwest 400 460 36,000  Level FlightAware ADS-B (KSNC)
Tue 07:35:14 PM 40.4917 -72.6451 224° Southwest 400 460 36,000  Level FlightAware ADS-B (KSNC)
Tue 07:35:45 PM 40.4508 -72.6958 224° Southwest 398 458 36,000  Level FlightAware ADS-B (KSNC)
Tue 07:36:27 PM 40.3951 -72.7649 224° Southwest 398 458 36,000  Level FlightAware ADS-B (KSNC)
Tue 07:36:58 PM 40.3543 -72.8153 223° Southwest 398 458 36,000  Level FlightAware ADS-B (KSNC)
Tue 07:37:40 PM 40.2977 -72.8852 223° Southwest 397 457 36,000  Level FlightAware ADS-B (KSNC)
Tue 07:38:11 PM 40.2561 -72.9364 223° Southwest 396 456 36,000  Level FlightAware ADS-B (KSNC)
Tue 07:39:07 PM 40.1825 -73.0269 223° Southwest 396 456 36,000  Level FlightAware ADS-B (KSNC)
Tue 07:39:41 PM 40.1372 -73.0824 223° Southwest 396 456 36,000  Level FlightAware ADS-B (KSNC)
Tue 07:40:17 PM 40.0877 -73.1430 223° Southwest 396 456 36,000  Level FlightAware ADS-B (KSNC)
Tue 07:40:53 PM 40.0394 -73.2019 223° Southwest 397 457 36,000  Level FlightAware ADS-B (KSNC)
Tue 07:41:25 PM 39.9968 -73.2538 223° Southwest 397 457 36,000  Level FlightAware ADS-B (KSNC)
Tue 07:41:56 PM 39.9551 -73.3046 223° Southwest 397 457 36,000  Level FlightAware ADS-B (KSNC)
Tue 07:42:36 PM 39.9024 -73.3685 223° Southwest 397 457 36,000  Level FlightAware ADS-B (KSNC)
Tue 07:43:13 PM 39.8514 -73.4302 223° Southwest 397 457 36,000  Level FlightAware ADS-B (KSNC)
Tue 07:43:43 PM 39.8139 -73.4756 223° Southwest 398 458 36,000  Level FlightAware ADS-B
Tue 07:44:21 PM 39.7601 -73.5405 223° Southwest 399 459 36,000  Level FlightAware ADS-B (KSNC)
Tue 07:44:58 PM 39.7099 -73.6010 223° Southwest 400 460 36,000  Level FlightAware ADS-B
Tue 07:45:30 PM 39.6651 -73.6517 216° Southwest 408 470 36,000  Level FlightAware ADS-B (KSNC)
Tue 07:45:41 PM 39.6486 -73.6660 215° Southwest 410 472 36,000  Level FlightAware ADS-B (KSNC)
Tue 07:46:19 PM 39.5942 -73.7125 214° Southwest 410 472 36,000  Level FlightAware ADS-B
Tue 07:46:55 PM 39.5316 -73.7664 214° Southwest 411 473 36,000  Level FlightAware ADS-B
Tue 07:47:30 PM 39.4762 -73.8139 214° Southwest 411 473 36,000  Level FlightAware ADS-B (KWWD)
Tue 07:48:00 PM 39.4289 -73.8544 214° Southwest 405 466 36,000  Level FlightAware ADS-B (KWWD)
Tue 07:48:31 PM 39.3799 -73.8963 214° Southwest 411 473 36,000  Level FlightAware ADS-B (KWWD)
Tue 07:49:02 PM 39.3299 -73.9391 214° Southwest 405 466 36,000  Level FlightAware ADS-B (KWWD)
Tue 07:49:33 PM 39.2811 -73.9808 214° Southwest 406 467 36,000  Level FlightAware ADS-B (KWWD)
Tue 07:50:03 PM 39.2322 -74.0226 214° Southwest 407 468 36,000  Level FlightAware ADS-B (KWWD)
Tue 07:50:33 PM 39.1942 -74.0551 214° Southwest 413 475 36,000  Level FlightAware ADS-B (KSNC)
Tue 07:51:03 PM 39.1382 -74.1027 214° Southwest 406 467 36,000  Level FlightAware ADS-B (KWWD)
Tue 07:51:34 PM 39.0886 -74.1449 214° Southwest 407 468 36,000  Level FlightAware ADS-B (KWWD)
Tue 07:52:04 PM 39.0404 -74.1859 213° Southwest 416 479 36,000  Level FlightAware ADS-B
Tue 07:52:40 PM 38.9818 -74.2355 213° Southwest 417 480 36,000  Level FlightAware ADS-B
Tue 07:53:13 PM 38.9290 -74.2801 214° Southwest 410 472 36,000  Level FlightAware ADS-B (KWWD)
Tue 07:53:43 PM 38.8809 -74.3207 214° Southwest 410 472 36,000  Level FlightAware ADS-B (KWWD)
Tue 07:54:13 PM 38.8322 -74.3617 214° Southwest 410 472 36,000  Level FlightAware ADS-B (KWWD)
Tue 07:54:29 PM 38.8065 -74.3833 213° Southwest 416 479 36,000  Level FlightAware ADS-B
Tue 07:55:03 PM 38.7524 -74.4288 214° Southwest 409 471 36,000  Level FlightAware ADS-B (KWWD)
Tue 07:55:34 PM 38.7030 -74.4702 214° Southwest 409 471 36,000  Level FlightAware ADS-B (KWWD)
Tue 07:56:04 PM 38.6550 -74.5104 214° Southwest 411 473 36,000  Level FlightAware ADS-B (KWWD)
Tue 07:57:04 PM 38.5575 -74.5919 213° Southwest 420 483 36,000  Level FlightAware ADS-B (KWWD)
Tue 07:57:39 PM 38.4996 -74.6402 213° Southwest 421 484 36,000  Level FlightAware ADS-B (KWWD)
Tue 07:58:14 PM 38.4433 -74.6870 213° Southwest 421 484 36,000  Level FlightAware ADS-B (KWWD)
Tue 07:58:44 PM 38.3939 -74.7279 213° Southwest 420 483 36,000  Level FlightAware ADS-B (KWWD)
Tue 07:59:24 PM 38.3293 -74.7814 213° Southwest 420 483 36,000  Level FlightAware ADS-B (KWWD)
Tue 07:59:55 PM 38.2792 -74.8229 213° Southwest 421 484 36,000  Level FlightAware ADS-B (KWWD)
Tue 08:00:29 PM 38.2232 -74.8691 213° Southwest 421 484 36,000  Level FlightAware ADS-B (KWWD)
Tue 08:01:01 PM 38.1705 -74.9126 213° Southwest 422 486 36,000  Level FlightAware ADS-B (KWWD)
Tue 08:01:43 PM 38.1022 -74.9687 213° Southwest 424 488 36,000  Level FlightAware ADS-B (KWWD)
Tue 08:06:52 PM 37.5972 -75.3875 213° Southwest 434 499 36,000  Level Washington Center
Tue 08:07:00 PM 37.6909 -75.2865 211° Southwest  Level FlightAware Approximate
Tue 08:07:53 PM 37.4953 -75.4689 212° Southwest 434 499 36,000  Level Washington Center
Tue 08:08:00 PM 37.6130 -75.3462 211° Southwest  Level FlightAware Approximate
Tue 08:09:00 PM 37.5350 -75.4058 211° Southwest  Level FlightAware Approximate
Tue 08:10:00 PM 37.4570 -75.4653 211° Southwest  Level FlightAware Approximate
Tue 08:11:00 PM 37.3801 -75.5272 213° Southwest  Level FlightAware Approximate
Tue 08:12:00 PM 37.3037 -75.5898 213° Southwest  Level FlightAware Approximate
Tue 08:12:28 PM 37.0213 -75.8411 212° Southwest 431 496 36,000  Level FlightAware ADS-B (KWWD)
Tue 08:13:52 PM 36.8856 -75.9478 212° Southwest 439 505 36,000  Level Washington Center
Tue 08:14:53 PM 36.7853 -76.0250 212° Southwest 439 505 36,000  Level Washington Center
Tue 08:15:51 PM 36.6933 -76.1022 214° Southwest 439 505 36,000  Level Washington Center
Tue 08:16:52 PM 36.5928 -76.1817 212° Southwest 439 505 36,000  Level Washington Center
Tue 08:17:52 PM 36.4900 -76.2611 212° Southwest 433 498 36,000  Level Washington Center
Tue 08:18:51 PM 36.3894 -76.3378 212° Southwest 433 498 36,000  Level Washington Center
Tue 08:19:52 PM 36.2867 -76.4167 212° Southwest 433 498 36,000  Level Washington Center
Tue 08:20:53 PM 36.1839 -76.4978 213° Southwest 433 498 36,000  Level Washington Center
Tue 08:21:53 PM 36.0811 -76.5764 212° Southwest 433 498 36,000  Level Washington Center
Tue 08:22:52 PM 35.9761 -76.6547 211° Southwest 438 504 36,000  Level Washington Center
Tue 08:23:52 PM 35.8753 -76.7353 213° Southwest 438 504 36,000  Level Washington Center
Tue 08:24:53 PM 35.7722 -76.8106 211° Southwest 438 504 36,000  Level Washington Center
Tue 08:25:51 PM 35.6672 -76.8856 210° Southwest 438 504 36,000  Level Washington Center
Tue 08:26:52 PM 35.5433 -76.9347 198° South 431 496 36,000  Level Washington Center
Tue 08:27:53 PM 35.4261 -76.9839 199° South 436 502 36,000  Level Washington Center
Tue 08:28:53 PM 35.3086 -77.0353 200° South 441 507 36,000  Level Washington Center
Tue 08:32:53 PM 34.8533 -77.2272 198° South 441 507 36,000  Level Washington Center
Tue 08:33:51 PM 34.7400 -77.2778 200° South 441 507 36,000  Level Washington Center
Tue 08:34:51 PM 34.6267 -77.3236 198° South 436 502 36,000  Level Washington Center
Tue 08:35:52 PM 34.5133 -77.3714 199° South 431 496 36,000  Level Washington Center
Tue 08:36:52 PM 34.4042 -77.4194 200° South 426 490 36,000  Level Washington Center
Tue 08:37:00 PM 34.6074 -77.3225 199° South  Level FlightAware Approximate
Tue 08:38:00 PM 34.5210 -77.3576 198° South  Level FlightAware Approximate
Tue 08:38:55 PM 34.1681 -77.5144 198° South 442 509 36,000  Level Jacksonville Center
Tue 08:39:55 PM 34.0572 -77.5564 197° South 434 499 36,000  Level Jacksonville Center
Tue 08:40:55 PM 33.9467 -77.6056 200° South 428 493 36,000  Level Jacksonville Center
Tue 08:41:55 PM 33.8358 -77.6472 197° South 428 493 36,000  Level Jacksonville Center
Tue 08:42:55 PM 33.7211 -77.6992 201° Southwest 428 493 36,000  Level Jacksonville Center
Tue 08:43:55 PM 33.6103 -77.7431 198° South 433 498 36,000  Level Jacksonville Center
Tue 08:44:55 PM 33.4994 -77.7869 198° South 433 498 36,000  Level Jacksonville Center
Tue 08:45:55 PM 33.3864 -77.8331 199° South 433 498 36,000  Level Jacksonville Center
Tue 08:46:55 PM 33.2736 -77.8767 198° South 433 498 36,000  Level Jacksonville Center
Tue 08:47:55 PM 33.1625 -77.9203 198° South 433 498 36,000  Level Jacksonville Center
Tue 08:48:55 PM 33.0497 -77.9686 200° South 433 498 36,000  Level Jacksonville Center
Tue 08:49:55 PM 32.9386 -78.0119 198° South 433 498 36,000  Level Jacksonville Center
Tue 08:50:55 PM 32.8256 -78.0550 198° South 433 498 36,000  Level Jacksonville Center
Tue 08:51:55 PM 32.7147 -78.1031 200° South 433 498 36,000  Level Jacksonville Center
Tue 08:52:55 PM 32.6078 -78.1481 200° South 427 491 36,000  Level Jacksonville Center
Tue 08:53:55 PM 32.4986 -78.1858 196° South 417 480 36,000  Level Jacksonville Center
Tue 08:54:55 PM 32.3894 -78.2258 197° South 417 480 36,000  Level Jacksonville Center
Tue 08:55:55 PM 32.2847 -78.2756 202° Southwest 417 480 36,000  Level Jacksonville Center
Tue 08:56:55 PM 32.1758 -78.3203 199° South 423 487 36,000  Level Jacksonville Center
Tue 08:57:55 PM 32.0647 -78.3650 199° South 423 487 36,000  Level Jacksonville Center
Tue 08:58:55 PM 31.9597 -78.4044 198° South 418 481 36,000  Level Jacksonville Center
Tue 08:59:55 PM 31.8506 -78.4489 199° South 418 481 36,000  Level Jacksonville Center
Tue 09:12:40 PM 30.5044 -78.9689 200° South 398 458 36,000 -7 Level Miami Center
Tue 09:13:00 PM 30.7158 -78.8681 198° South  Level FlightAware Approximate
Tue 09:13:40 PM 30.3956 -79.0078 197° South 393 452 35,900  Level Miami Center
Tue 09:14:00 PM 30.6295 -78.9014 198° South  Level FlightAware Approximate
Tue 09:14:41 PM 30.2989 -79.0539 202° Southwest 398 458 36,000  Level Miami Center
Tue 09:15:00 PM 30.5431 -78.9347 198° South  Level FlightAware Approximate
Tue 09:15:40 PM 30.1961 -79.0947 199° South 392 451 36,000  Level Miami Center
Tue 09:16:00 PM 30.4568 -78.9679 198° South  Level FlightAware Approximate
Tue 09:16:40 PM 30.0911 -79.1381 200° South 394 453 36,000  Level Miami Center
Tue 09:17:00 PM 30.3710 -79.0029 200° South  Level FlightAware Approximate
Tue 09:17:41 PM 30.0072 -79.1794 203° Southwest 385 443 36,000  Level Miami Center
Tue 09:18:00 PM 30.2857 -79.0395 200° South  Level FlightAware Approximate
Tue 09:18:41 PM 29.9044 -79.2181 198° South 391 450 36,000  Level Miami Center
Tue 09:19:41 PM 29.8056 -79.2564 199° South 391 450 36,000  Level Miami Center
Tue 09:20:42 PM 29.7050 -79.2925 197° South 386 444 36,000  Level Miami Center
Tue 09:21:40 PM 29.6042 -79.3331 199° South 386 444 36,000  Level Miami Center
Tue 09:27:49 PM 28.9599 -79.5657 198° South 387 445 36,000  Level FlightAware ADS-B
Tue 09:28:30 PM 28.8899 -79.5920 198° South 388 447 36,000  Level FlightAware ADS-B
Tue 09:29:00 PM 28.8430 -79.6095 198° South 391 450 36,000  Level FlightAware ADS-B
Tue 09:30:18 PM 28.7055 -79.6608 198° South 392 451 36,000  Level FlightAware ADS-B
Tue 09:32:31 PM 28.4765 -79.7461 198° South 395 455 36,000  Level FlightAware ADS-B
Tue 09:33:09 PM 28.4073 -79.7717 198° South 395 455 36,000  Level FlightAware ADS-B
Tue 09:34:30 PM 28.2659 -79.8240 198° South 395 455 36,000  Level FlightAware ADS-B
Tue 09:35:01 PM 28.2131 -79.8436 198° South 397 457 36,000  Level FlightAware ADS-B
Tue 09:35:39 PM 28.1466 -79.8682 198° South 398 458 36,000  Level FlightAware ADS-B
Tue 09:36:17 PM 28.0793 -79.8930 198° South 398 458 36,000  Level FlightAware ADS-B
Tue 09:36:49 PM 28.0232 -79.9136 198° South 398 458 36,000  Level FlightAware ADS-B
Tue 09:37:21 PM 27.9683 -79.9339 198° South 399 459 36,000  Level FlightAware ADS-B
Tue 09:37:58 PM 27.9018 -79.9583 198° South 401 461 36,000  Level FlightAware ADS-B
Tue 09:38:41 PM 27.8261 -79.9861 198° South 402 463 36,000  Level FlightAware ADS-B
Tue 09:39:20 PM 27.7569 -80.0114 198° South 399 459 36,000  Level FlightAware ADS-B
Tue 09:44:22 PM 27.2253 -80.2051 198° South 403 464 36,000  Level FlightAware ADS-B
Tue 09:45:00 PM 27.1555 -80.2304 198° South 405 466 36,000  Level FlightAware ADS-B
Tue 09:45:42 PM 27.0808 -80.2573 198° South 405 466 36,000  Level FlightAware ADS-B
Tue 09:46:21 PM 27.0100 -80.2830 198° South 406 467 36,000  Level FlightAware ADS-B
Tue 09:46:51 PM 26.9565 -80.3022 198° South 406 467 36,000  Level FlightAware ADS-B
Tue 09:48:02 PM 26.8308 -80.3475 198° South 405 466 36,000  Level FlightAware ADS-B
Tue 09:48:32 PM 26.7771 -80.3668 198° South 405 466 36,000  Level FlightAware ADS-B
Tue 09:49:13 PM 26.7036 -80.3932 198° South 406 467 36,000  Level FlightAware ADS-B
Tue 09:50:03 PM 26.6156 -80.4248 198° South 408 470 36,000  Level FlightAware ADS-B
Tue 09:50:50 PM 26.5391 -80.4522 198° South 407 468 36,000  Level FlightAware ADS-B
Tue 09:51:43 PM 26.4351 -80.4894 198° South 409 471 36,000  Level FlightAware ADS-B
Tue 09:52:48 PM 26.3156 -80.5320 198° South 411 473 36,000  Level FlightAware ADS-B
Tue 09:53:25 PM 26.2492 -80.5557 198° South 411 473 36,000  Level FlightAware ADS-B
Tue 09:53:58 PM 26.1903 -80.5766 198° South 412 474 36,000  Level FlightAware ADS-B
Tue 09:57:52 PM 25.8506 -80.8414 209° Southwest 394 453 36,000  Level Miami Center
Tue 09:58:00 PM 25.8388 -80.6901 198° South  Level FlightAware Approximate
Tue 09:58:53 PM 25.7672 -80.9194 220° Southwest 394 453 36,000  Level Miami Center
Tue 09:59:00 PM 25.7525 -80.7213 198° South  Level FlightAware Approximate
Tue 09:59:54 PM 25.6836 -80.9972 220° Southwest 394 453 36,000  Level Miami Center
Tue 10:00:00 PM 25.6465 -80.7876 209° Southwest  Level Estimated
Tue 10:00:54 PM 25.6019 -81.0728 220° Southwest 394 453 36,000  Level Miami Center
Tue 10:01:00 PM 25.5675 -80.8370 209° Southwest  Level Estimated
Tue 10:01:55 PM 25.5183 -81.1481 219° Southwest 394 453 36,000  Level Miami Center
Tue 10:02:00 PM 25.4885 -80.8863 209° Southwest  Level Estimated
Tue 10:02:52 PM 25.4347 -81.2256 220° Southwest 394 453 36,000  Level Miami Center
Tue 10:03:00 PM 25.4095 -80.9355 209° Southwest  Level Estimated
Tue 10:03:53 PM 25.3508 -81.3008 219° Southwest 394 453 36,000  Level Miami Center
Tue 10:04:54 PM 25.2736 -81.3669 218° Southwest 394 453 36,000  Level Miami Center
Tue 10:05:52 PM 25.1919 -81.4464 221° Southwest 394 453 36,000 -51 Level Miami Center
Tue 10:06:52 PM 25.1081 -81.5214 219° Southwest 389 448 35,900 -545 Descending Miami Center
Tue 10:07:53 PM 25.0242 -81.6006 221° Southwest 389 448 34,900 -992 Descending Miami Center
Tue 10:08:53 PM 24.9358 -81.6797 219° Southwest 399 459 33,900 -1,002 Descending Miami Center
Tue 10:16:52 PM 24.2767 -82.2714 205° Southwest 375 432 25,900 -1,000 Descending Miami Center
Tue 10:17:00 PM 24.3617 -82.1848 217° Southwest  Level FlightAware Approximate
Tue 10:17:53 PM 24.2008 -82.3431 221° Southwest 369 425 24,900  Level Miami Center
Tue 10:18:00 PM 24.2896 -82.2448 217° Southwest  Level FlightAware Approximate
Tue 10:18:55 PM 24.1256 -82.4081 218° Southwest 364 419 23,900  Level Miami Center
Tue 10:19:00 PM 24.2175 -82.3049 217° Southwest  Level FlightAware Approximate
Tue 10:19:55 PM 24.0519 -82.4731 219° Southwest 354 407 23,000  Level Miami Center
Tue 10:20:00 PM 24.1481 -82.3686 222° Southwest  Level FlightAware Approximate
Tue 10:21:00 PM 24.0812 -82.4355 222° Southwest  Level FlightAware Approximate
Tue 10:21:00 PM 23.9765 -82.5133 173° South  Level FlightAware Approximate
Tue 10:22:00 PM 24.0099 -82.4950 205° Southwest  Level FlightAware Approximate
Tue 10:28:00 PM 23.3474 -82.4297 175° South  Level FlightAware Approximate
Tue 10:29:00 PM 23.2572 -82.4207 175° South  Level FlightAware Approximate
Tue 10:30:00 PM 23.1668 -82.4167 180° South  Level FlightAware Approximate
Tue 10:31:00 PM 23.0772 -82.4054 170° South  Level FlightAware Approximate
Tue 10:32:00 PM 22.9871 -82.4000 180° South  Level FlightAware Approximate
Tue 10:33:00 PM 22.9891 -82.4091 180° South  Level Estimated
Tue 10:34:00 PM 22.9891 -82.4091 180° South  Level Estimated
Tue 10:35:00 PM 22.9891 -82.4091 180° South  Level Estimated
Tue 10:36:00 PM 22.9891 -82.4091 180° South  Level Estimated
Tue 10:37:00 PM 22.9891 -82.4091 180° South  Level Estimated
Tue 10:38:00 PM 22.9891 -82.4091 180° South  Level Estimated
Tue 10:39:00 PM 22.9891 -82.4091 180° South  Level Estimated
Tue 10:40:00 PM 22.9891 -82.4091 180° South  Level Estimated
Tue 10:41:00 PM 22.9891 -82.4091 180° South  Level Estimated
Tue 10:42:00 PM 22.9891 -82.4091 180° South  Level Estimated
Tue 10:43:00 PM 22.9891 -82.4091 180° South  Level Estimated
Tue 10:44:00 PM 22.9891 -82.4091 180° South  Level Estimated
Tue 10:45:00 PM 22.9891 -82.4091 180° South  Level Estimated
Tue 10:46:00 PM 22.9891 -82.4091 180° South  Level Estimated
Tue 10:47:00 PM 22.9891 -82.4091 180° South  Level Estimated
Tue 10:48:00 PM 22.9891 -82.4091 180° South  Level Estimated
Tue 10:49:00 PM 22.9891 -82.4091 180° South  Level Estimated
Tue 10:50:00 PM 22.9891 -82.4091 180° South  Level Estimated
Tue 10:51:00 PM 22.9891 -82.4091 180° South  Level Estimated

Login

Don't have an account? Register now (free) for customized features, flight alerts, and more!